F/V La Mordoree — FGIA — position and weather

sailwx.info

Track history (hours):
 
Tides and Currents Weather Stations Pressure Air Temp Water Temp Dewpoint Dewpoint Depression Visibility Wind Speed Wind Dir Waves Ship Positions

F/V La Mordoree

Last reported at 2017-Nov-19 12:03 UTC. Time now 2017-Nov-19 18:08 UTC.
Position N 47°07' W 003°04'.

Length 18 m.

Type: Other ship. MMSI: 228248000.

Date/timePositionNaut miles runAvg speedWind from/ knotsBaromVisibWave heightAir tempDewpointWater temp
2017-Nov-19 12:03N 47°07' W 003°04'1 3.2
2017-Nov-19 11:44N 47°06' W 003°03'6 0.7
2017-Nov-19 02:59N 47°00' W 002°59'2 2.5
2017-Nov-19 02:18N 46°58' W 002°59'4 2.6
2017-Nov-19 00:44N 47°02' W 003°02'2 2.6
2017-Nov-19 00:05N 47°01' W 003°01'1 2.9
2017-Nov-18 23:52N 47°00' W 002°60'1 2.8
2017-Nov-18 23:30N 47°00' W 002°58'3 1.2
2017-Nov-18 20:43N 47°02' W 003°03'4 2.9
2017-Nov-18 19:21N 46°60' W 002°58'3 1.2
2017-Nov-18 17:01N 47°01' W 003°01'2 3.0
2017-Nov-18 16:21N 46°59' W 002°60'3 2.9
2017-Nov-18 15:15N 47°02' W 003°02'1 3.0
2017-Nov-18 15:00N 47°03' W 003°01'2 3.2
2017-Nov-18 14:30N 47°01' W 002°60'1 2.3
2017-Nov-18 13:55N 46°60' W 002°59'3 2.0
2017-Nov-18 12:30N 47°02' W 003°02'2 3.0
2017-Nov-18 11:57N 47°01' W 003°01'1 0.8
2017-Nov-18 10:08N 47°02' W 003°02'0 3.0
2017-Nov-18 10:00N 47°02' W 003°01'2 3.1
2017-Nov-18 09:25N 46°60' W 003°00'3 2.5
2017-Nov-18 08:15N 46°57' W 002°59'5 2.2
2017-Nov-18 06:12N 47°02' W 002°59'1 3.1
2017-Nov-18 05:49N 47°03' W 002°60'1 3.7
2017-Nov-18 05:30N 47°04' W 002°59'4 8.3
2017-Nov-18 05:00N 47°06' W 002°54'5 9.4
2017-Nov-18 04:30N 47°09' W 002°49'5 9.3
2017-Nov-18 03:59N 47°12' W 002°43'5 9.4
2017-Nov-18 03:30N 47°15' W 002°38'5 9.3
2017-Nov-18 03:00N 47°19' W 002°34'3 5.9
2017-Nov-18 02:30N 47°21' W 002°31'0 0.0
2017-Nov-16 19:12N 47°21' W 002°31'0 0.0
2017-Nov-16 18:32N 47°21' W 002°31'1 7.2
2017-Nov-16 18:19N 47°20' W 002°33'3 9.1
2017-Nov-16 18:00N 47°19' W 002°37'4 8.7
2017-Nov-16 17:29N 47°17' W 002°42'5 9.0
2017-Nov-16 16:59N 47°13' W 002°47'4 9.1
2017-Nov-16 16:30N 47°10' W 002°52'3 5.9
2017-Nov-16 15:56N 47°08' W 002°56'1 3.0
2017-Nov-16 15:30N 47°08' W 002°57'1 3.0
2017-Nov-16 15:00N 47°07' W 002°59'2 3.1
2017-Nov-16 14:15N 47°05' W 003°01'1 3.1
2017-Nov-16 14:00N 47°04' W 003°01'2 3.1
2017-Nov-16 13:30N 47°03' W 003°01'1 1.4
2017-Nov-16 13:00N 47°02' W 003°00'2 3.2
2017-Nov-16 12:29N 47°04' W 003°01'2 3.1
2017-Nov-16 12:00N 47°05' W 003°01'2 3.1
2017-Nov-16 11:24N 47°07' W 003°03'1 2.9
2017-Nov-16 11:00N 47°06' W 003°03'2 3.2
2017-Nov-16 10:30N 47°04' W 003°02'1 2.9
2017-Nov-16 10:00N 47°03' W 003°01'1 2.9
2017-Nov-16 09:30N 47°02' W 003°01'1 2.1
2017-Nov-16 09:00N 47°01' W 002°59'3 3.0
2017-Nov-16 07:50N 47°05' W 003°01'2 3.1
2017-Nov-16 07:12N 47°06' W 003°02'0 1.4
2017-Nov-16 06:58N 47°06' W 003°02'2 3.2
2017-Nov-16 06:24N 47°05' W 003°01'1 3.2
2017-Nov-16 06:00N 47°03' W 002°60'2 3.1
2017-Nov-16 05:27N 47°02' W 002°59'4 1.9
2017-Nov-16 03:30N 47°05' W 003°02'2 3.1
2017-Nov-16 03:00N 47°06' W 003°03'1 2.4
2017-Nov-16 02:29N 47°06' W 003°01'1 3.1
2017-Nov-16 02:00N 47°05' W 002°60'2 3.1
2017-Nov-16 01:30N 47°03' W 002°58'1 3.0
2017-Nov-16 01:00N 47°02' W 002°57'2 3.1
2017-Nov-16 00:30N 47°01' W 002°56'1 1.7
2017-Nov-15 23:59N 47°02' W 002°56'2 3.2
2017-Nov-15 23:24N 47°04' W 002°57'2 3.2
2017-Nov-15 22:48N 47°05' W 002°59'2 3.1
2017-Nov-15 22:15N 47°07' W 002°60'1 3.4
2017-Nov-15 22:00N 47°07' W 003°01'1 2.9
2017-Nov-15 21:30N 47°05' W 003°01'1 1.0
2017-Nov-15 20:05N 47°06' W 003°03'0 3.2
2017-Nov-15 19:58N 47°06' W 003°03'2 3.2
2017-Nov-15 19:29N 47°04' W 003°02'2 3.2
2017-Nov-15 18:54N 47°03' W 003°01'1 3.1
2017-Nov-15 18:27N 47°01' W 003°01'3 1.5
2017-Nov-15 16:13N 47°05' W 003°01'1 2.5
2017-Nov-15 15:56N 47°05' W 003°00'1 3.2
2017-Nov-15 15:30N 47°04' W 002°59'2 2.9
2017-Nov-15 14:52N 47°02' W 002°57'2 2.4
2017-Nov-15 14:09N 47°01' W 002°56'7 1.5
2017-Nov-15 09:32N 47°06' W 003°03'0 3.4
2017-Nov-15 09:30N 47°06' W 003°03'1 2.4
2017-Nov-15 09:00N 47°06' W 003°01'1 2.5
2017-Nov-15 08:29N 47°05' W 002°59'1 3.1
2017-Nov-15 08:00N 47°04' W 002°59'4 2.4
2017-Nov-15 06:30N 47°07' W 003°01'2 3.4
2017-Nov-15 05:59N 47°08' W 002°59'2 3.5
2017-Nov-15 05:30N 47°08' W 002°57'3 5.7
2017-Nov-15 04:59N 47°10' W 002°53'5 9.9
2017-Nov-15 04:30N 47°13' W 002°48'5 9.7
2017-Nov-15 03:59N 47°16' W 002°42'5 9.4
2017-Nov-15 03:28N 47°19' W 002°37'4 8.8
2017-Nov-15 03:00N 47°21' W 002°31'26 1.4
2017-Nov-14 08:48N 47°07' W 003°03'1 3.1
2017-Nov-14 08:20N 47°06' W 003°03'3 3.2
2017-Nov-14 07:20N 47°02' W 003°02'5 2.2
2017-Nov-14 05:05N 47°07' W 003°05'0 3.2
2017-Nov-14 04:57N 47°07' W 003°05'2 0.5
2017-Nov-14 00:51N 47°05' W 003°03'1 2.3
2017-Nov-14 00:28N 47°06' W 003°03'21 0.7
2017-Nov-12 18:14N 47°19' W 002°38'3 9.2
2017-Nov-12 17:58N 47°18' W 002°41'19 1.1
2017-Nov-12 00:13N 47°08' W 003°05'1 0.1
2017-Nov-11 13:37N 47°07' W 003°03'8 1.2
2017-Nov-11 06:28N 47°12' W 002°52'4 7.9
2017-Nov-11 05:59N 47°14' W 002°48'4 7.8
2017-Nov-11 05:29N 47°17' W 002°44'4 8.0
2017-Nov-11 05:00N 47°19' W 002°39'4 7.9
2017-Nov-11 04:30N 47°20' W 002°33'2 0.1
2017-Nov-09 17:51N 47°21' W 002°31'0 0.0
2017-Nov-09 17:30N 47°21' W 002°31'  
Track history (hours):
 
Tides and Currents Weather Stations Pressure Air Temp Water Temp Dewpoint Dewpoint Depression Visibility Wind Speed Wind Dir Waves Ship Positions

F/V La Mordoree

Last reported at 2017-Nov-19 12:03 UTC. Time now 2017-Nov-19 18:08 UTC.
Position N 47°07' W 003°04'.

Length 18 m.

Type: Other ship. MMSI: 228248000.

Date/timePositionNaut miles runAvg speedWind from/ knotsBaromVisibWave heightAir tempDewpointWater temp
2017-Nov-19 12:03N 47°07' W 003°04'1 3.2
2017-Nov-19 11:44N 47°06' W 003°03'6 0.7
2017-Nov-19 02:59N 47°00' W 002°59'2 2.5
2017-Nov-19 02:18N 46°58' W 002°59'4 2.6
2017-Nov-19 00:44N 47°02' W 003°02'2 2.6
2017-Nov-19 00:05N 47°01' W 003°01'1 2.9
2017-Nov-18 23:52N 47°00' W 002°60'1 2.8
2017-Nov-18 23:30N 47°00' W 002°58'3 1.2
2017-Nov-18 20:43N 47°02' W 003°03'4 2.9
2017-Nov-18 19:21N 46°60' W 002°58'3 1.2
2017-Nov-18 17:01N 47°01' W 003°01'2 3.0
2017-Nov-18 16:21N 46°59' W 002°60'3 2.9
2017-Nov-18 15:15N 47°02' W 003°02'1 3.0
2017-Nov-18 15:00N 47°03' W 003°01'2 3.2
2017-Nov-18 14:30N 47°01' W 002°60'1 2.3
2017-Nov-18 13:55N 46°60' W 002°59'3 2.0
2017-Nov-18 12:30N 47°02' W 003°02'2 3.0
2017-Nov-18 11:57N 47°01' W 003°01'1 0.8
2017-Nov-18 10:08N 47°02' W 003°02'0 3.0
2017-Nov-18 10:00N 47°02' W 003°01'2 3.1
2017-Nov-18 09:25N 46°60' W 003°00'3 2.5
2017-Nov-18 08:15N 46°57' W 002°59'5 2.2
2017-Nov-18 06:12N 47°02' W 002°59'1 3.1
2017-Nov-18 05:49N 47°03' W 002°60'1 3.7
2017-Nov-18 05:30N 47°04' W 002°59'4 8.3
2017-Nov-18 05:00N 47°06' W 002°54'5 9.4
2017-Nov-18 04:30N 47°09' W 002°49'5 9.3
2017-Nov-18 03:59N 47°12' W 002°43'5 9.4
2017-Nov-18 03:30N 47°15' W 002°38'5 9.3
2017-Nov-18 03:00N 47°19' W 002°34'3 5.9
2017-Nov-18 02:30N 47°21' W 002°31'0 0.0
2017-Nov-16 19:12N 47°21' W 002°31'0 0.0
2017-Nov-16 18:32N 47°21' W 002°31'1 7.2
2017-Nov-16 18:19N 47°20' W 002°33'3 9.1
2017-Nov-16 18:00N 47°19' W 002°37'4 8.7
2017-Nov-16 17:29N 47°17' W 002°42'5 9.0
2017-Nov-16 16:59N 47°13' W 002°47'4 9.1
2017-Nov-16 16:30N 47°10' W 002°52'3 5.9
2017-Nov-16 15:56N 47°08' W 002°56'1 3.0
2017-Nov-16 15:30N 47°08' W 002°57'1 3.0
2017-Nov-16 15:00N 47°07' W 002°59'2 3.1
2017-Nov-16 14:15N 47°05' W 003°01'1 3.1
2017-Nov-16 14:00N 47°04' W 003°01'2 3.1
2017-Nov-16 13:30N 47°03' W 003°01'1 1.4
2017-Nov-16 13:00N 47°02' W 003°00'2 3.2
2017-Nov-16 12:29N 47°04' W 003°01'2 3.1
2017-Nov-16 12:00N 47°05' W 003°01'2 3.1
2017-Nov-16 11:24N 47°07' W 003°03'1 2.9
2017-Nov-16 11:00N 47°06' W 003°03'2 3.2
2017-Nov-16 10:30N 47°04' W 003°02'1 2.9
2017-Nov-16 10:00N 47°03' W 003°01'1 2.9
2017-Nov-16 09:30N 47°02' W 003°01'1 2.1
2017-Nov-16 09:00N 47°01' W 002°59'3 3.0
2017-Nov-16 07:50N 47°05' W 003°01'2 3.1
2017-Nov-16 07:12N 47°06' W 003°02'0 1.4
2017-Nov-16 06:58N 47°06' W 003°02'2 3.2
2017-Nov-16 06:24N 47°05' W 003°01'1 3.2
2017-Nov-16 06:00N 47°03' W 002°60'2 3.1
2017-Nov-16 05:27N 47°02' W 002°59'4 1.9
2017-Nov-16 03:30N 47°05' W 003°02'2 3.1
2017-Nov-16 03:00N 47°06' W 003°03'1 2.4
2017-Nov-16 02:29N 47°06' W 003°01'1 3.1
2017-Nov-16 02:00N 47°05' W 002°60'2 3.1
2017-Nov-16 01:30N 47°03' W 002°58'1 3.0
2017-Nov-16 01:00N 47°02' W 002°57'2 3.1
2017-Nov-16 00:30N 47°01' W 002°56'1 1.7
2017-Nov-15 23:59N 47°02' W 002°56'2 3.2
2017-Nov-15 23:24N 47°04' W 002°57'2 3.2
2017-Nov-15 22:48N 47°05' W 002°59'2 3.1
2017-Nov-15 22:15N 47°07' W 002°60'1 3.4
2017-Nov-15 22:00N 47°07' W 003°01'1 2.9
2017-Nov-15 21:30N 47°05' W 003°01'1 1.0
2017-Nov-15 20:05N 47°06' W 003°03'0 3.2
2017-Nov-15 19:58N 47°06' W 003°03'2 3.2
2017-Nov-15 19:29N 47°04' W 003°02'2 3.2
2017-Nov-15 18:54N 47°03' W 003°01'1 3.1
2017-Nov-15 18:27N 47°01' W 003°01'3 1.5
2017-Nov-15 16:13N 47°05' W 003°01'1 2.5
2017-Nov-15 15:56N 47°05' W 003°00'1 3.2
2017-Nov-15 15:30N 47°04' W 002°59'2 2.9
2017-Nov-15 14:52N 47°02' W 002°57'2 2.4
2017-Nov-15 14:09N 47°01' W 002°56'7 1.5
2017-Nov-15 09:32N 47°06' W 003°03'0 3.4
2017-Nov-15 09:30N 47°06' W 003°03'1 2.4
2017-Nov-15 09:00N 47°06' W 003°01'1 2.5
2017-Nov-15 08:29N 47°05' W 002°59'1 3.1
2017-Nov-15 08:00N 47°04' W 002°59'4 2.4
2017-Nov-15 06:30N 47°07' W 003°01'2 3.4
2017-Nov-15 05:59N 47°08' W 002°59'2 3.5
2017-Nov-15 05:30N 47°08' W 002°57'3 5.7
2017-Nov-15 04:59N 47°10' W 002°53'5 9.9
2017-Nov-15 04:30N 47°13' W 002°48'5 9.7
2017-Nov-15 03:59N 47°16' W 002°42'5 9.4
2017-Nov-15 03:28N 47°19' W 002°37'4 8.8
2017-Nov-15 03:00N 47°21' W 002°31'26 1.4
2017-Nov-14 08:48N 47°07' W 003°03'1 3.1
2017-Nov-14 08:20N 47°06' W 003°03'3 3.2
2017-Nov-14 07:20N 47°02' W 003°02'5 2.2
2017-Nov-14 05:05N 47°07' W 003°05'0 3.2
2017-Nov-14 04:57N 47°07' W 003°05'2 0.5
2017-Nov-14 00:51N 47°05' W 003°03'1 2.3
2017-Nov-14 00:28N 47°06' W 003°03'21 0.7
2017-Nov-12 18:14N 47°19' W 002°38'3 9.2
2017-Nov-12 17:58N 47°18' W 002°41'19 1.1
2017-Nov-12 00:13N 47°08' W 003°05'1 0.1
2017-Nov-11 13:37N 47°07' W 003°03'8 1.2
2017-Nov-11 06:28N 47°12' W 002°52'4 7.9
2017-Nov-11 05:59N 47°14' W 002°48'4 7.8
2017-Nov-11 05:29N 47°17' W 002°44'4 8.0
2017-Nov-11 05:00N 47°19' W 002°39'4 7.9
2017-Nov-11 04:30N 47°20' W 002°33'2 0.1
2017-Nov-09 17:51N 47°21' W 002°31'0 0.0
2017-Nov-09 17:30N 47°21' W 002°31'  

Dump ship's entire track history